createdAt,value
2023-05-25T00:01:04.856Z,13.90
2023-05-25T00:03:32.682Z,13.70
2023-05-25T00:06:03.974Z,13.60
2023-05-25T00:08:31.066Z,13.60
2023-05-25T00:10:58.453Z,13.60
2023-05-25T00:13:25.902Z,13.60
2023-05-25T00:15:52.993Z,13.60
2023-05-25T00:18:20.017Z,13.50
2023-05-25T00:20:47.681Z,13.50
2023-05-25T00:23:15.061Z,13.50
2023-05-25T00:25:42.581Z,13.50
2023-05-25T00:28:12.113Z,13.50
2023-05-25T00:30:39.386Z,13.50
2023-05-25T00:33:06.838Z,13.50
2023-05-25T00:35:33.836Z,13.50
2023-05-25T00:38:01.046Z,13.60
2023-05-25T00:40:28.065Z,13.60
2023-05-25T00:42:57.850Z,13.80
2023-05-25T00:45:24.988Z,13.70
2023-05-25T00:47:52.724Z,13.90
2023-05-25T00:50:42.334Z,13.80
2023-05-25T00:53:12.803Z,13.90
2023-05-25T00:56:23.004Z,14.00
2023-05-25T00:58:57.091Z,14.00
2023-05-25T01:01:26.364Z,14.30
2023-05-25T01:03:55.741Z,14.20
2023-05-25T01:06:23.714Z,14.20
2023-05-25T01:08:56.906Z,14.20
2023-05-25T01:11:32.607Z,14.30
2023-05-25T01:13:59.937Z,14.30
2023-05-25T01:16:27.243Z,14.60
2023-05-25T01:18:54.897Z,14.40
2023-05-25T01:21:42.987Z,14.40
2023-05-25T01:24:44.754Z,14.40
2023-05-25T01:27:47.221Z,14.50
2023-05-25T01:30:17.157Z,14.50
2023-05-25T01:32:45.921Z,14.40
2023-05-25T01:35:14.631Z,14.40
2023-05-25T01:37:49.880Z,14.40
2023-05-25T01:40:16.878Z,14.40
2023-05-25T01:42:44.215Z,14.40
2023-05-25T01:45:13.791Z,14.50
2023-05-25T01:48:16.412Z,14.40
2023-05-25T01:51:05.418Z,14.30
2023-05-25T01:53:48.488Z,14.30
2023-05-25T01:56:17.222Z,14.30
2023-05-25T01:58:47.585Z,14.20
2023-05-25T02:01:16.120Z,14.20
2023-05-25T02:03:44.999Z,14.40
2023-05-25T02:06:12.282Z,14.20
2023-05-25T02:08:39.328Z,14.10
2023-05-25T02:11:06.517Z,14.10
2023-05-25T02:13:33.468Z,14.10
2023-05-25T02:16:01.023Z,14.10
2023-05-25T02:18:28.382Z,14.10
2023-05-25T02:20:55.532Z,14.10
2023-05-25T02:23:22.494Z,14.00
2023-05-25T02:25:51.644Z,14.00
2023-05-25T02:28:19.106Z,14.00
2023-05-25T02:30:46.111Z,14.00
2023-05-25T02:33:13.895Z,14.00
2023-05-25T02:35:41.826Z,13.90
2023-05-25T02:38:10.517Z,13.90
2023-05-25T02:40:37.547Z,13.80
2023-05-25T02:43:04.685Z,13.80
2023-05-25T02:45:31.832Z,13.80
2023-05-25T02:47:58.970Z,13.80
2023-05-25T02:50:26.240Z,13.70
2023-05-25T02:52:56.510Z,13.70
2023-05-25T02:55:25.996Z,13.60
2023-05-25T02:57:53.672Z,13.80
2023-05-25T03:00:39.456Z,13.70
2023-05-25T03:03:06.733Z,13.50
2023-05-25T03:05:35.326Z,13.50
2023-05-25T03:08:02.973Z,13.50
2023-05-25T03:10:31.200Z,13.50
2023-05-25T03:12:58.434Z,13.40
2023-05-25T03:15:25.853Z,13.40
2023-05-25T03:17:53.899Z,13.40
2023-05-25T03:20:24.569Z,13.40
2023-05-25T03:22:55.033Z,13.30
2023-05-25T03:25:22.382Z,13.40
2023-05-25T03:27:56.594Z,13.40
2023-05-25T03:30:23.963Z,13.40
2023-05-25T03:32:51.376Z,13.40
2023-05-25T03:35:18.759Z,13.40
2023-05-25T03:37:46.069Z,13.40
2023-05-25T03:40:13.308Z,13.40
2023-05-25T03:42:40.917Z,13.50
2023-05-25T03:45:09.351Z,13.50
2023-05-25T03:47:37.684Z,13.50
2023-05-25T03:50:07.108Z,13.50
2023-05-25T03:52:34.370Z,13.50
2023-05-25T03:55:04.632Z,13.60
2023-05-25T03:57:31.794Z,13.60
2023-05-25T03:59:59.520Z,13.60
2023-05-25T04:02:26.883Z,13.70
2023-05-25T04:04:57.120Z,13.70
2023-05-25T04:07:27.426Z,13.80
2023-05-25T04:09:54.656Z,13.80
2023-05-25T04:12:22.539Z,13.90
2023-05-25T04:14:49.784Z,13.90
2023-05-25T04:17:19.037Z,14.00
2023-05-25T04:19:46.483Z,14.00
2023-05-25T04:22:13.528Z,14.10
2023-05-25T04:24:41.811Z,14.10
2023-05-25T04:27:09.282Z,14.20
2023-05-25T04:29:38.240Z,14.40
2023-05-25T04:32:23.913Z,14.30
2023-05-25T04:35:07.102Z,14.40
2023-05-25T04:37:41.643Z,14.50
2023-05-25T04:40:11.668Z,14.50
2023-05-25T04:42:39.827Z,14.60
2023-05-25T04:45:11.965Z,14.70
2023-05-25T04:47:41.159Z,14.80
2023-05-25T04:50:11.071Z,14.90
2023-05-25T04:52:38.506Z,14.90
2023-05-25T04:55:06.429Z,15.00
2023-05-25T04:57:36.493Z,15.10
2023-05-25T05:00:04.943Z,15.30
2023-05-25T05:02:32.395Z,15.20
2023-05-25T05:04:59.795Z,15.30
2023-05-25T05:07:26.951Z,15.50
2023-05-25T05:09:54.637Z,15.50
2023-05-25T05:12:21.795Z,15.60
2023-05-25T05:14:51.693Z,15.70
2023-05-25T05:17:19.602Z,15.80
2023-05-25T05:19:46.657Z,15.90
2023-05-25T05:22:16.153Z,15.90
2023-05-25T05:24:45.293Z,16.00
2023-05-25T05:27:17.176Z,16.10
2023-05-25T05:29:47.898Z,16.20
2023-05-25T05:32:15.762Z,16.30
2023-05-25T05:34:42.832Z,16.40
2023-05-25T05:37:21.354Z,16.50
2023-05-25T05:39:48.511Z,16.60
2023-05-25T05:42:15.699Z,16.70
2023-05-25T05:44:42.722Z,16.70
2023-05-25T05:47:09.862Z,16.80
2023-05-25T05:49:39.244Z,16.90
2023-05-25T05:52:09.177Z,17.10
2023-05-25T05:54:36.466Z,17.10
2023-05-25T05:57:08.790Z,17.20
2023-05-25T05:59:35.966Z,17.30
2023-05-25T06:02:03.154Z,17.40
2023-05-25T06:04:30.756Z,17.50
2023-05-25T06:06:59.094Z,17.60
2023-05-25T06:09:26.546Z,17.70
2023-05-25T06:11:56.036Z,17.80
2023-05-25T06:14:23.092Z,17.90
2023-05-25T06:16:51.184Z,18.10
2023-05-25T06:19:18.287Z,18.20
2023-05-25T06:21:45.406Z,18.20
2023-05-25T06:24:12.399Z,18.30
2023-05-25T06:26:39.429Z,18.40
2023-05-25T06:29:06.890Z,18.50
2023-05-25T06:31:33.957Z,18.70
2023-05-25T06:34:01.302Z,18.90
2023-05-25T06:36:28.500Z,18.80
2023-05-25T06:38:55.819Z,19.10
2023-05-25T06:41:23.081Z,19.00
2023-05-25T06:43:50.121Z,19.20
2023-05-25T06:46:30.076Z,19.20
2023-05-25T06:49:00.834Z,19.40
2023-05-25T06:51:28.076Z,19.40
2023-05-25T06:53:58.255Z,19.50
2023-05-25T06:56:25.205Z,19.60
2023-05-25T06:58:52.216Z,19.70
2023-05-25T07:01:19.326Z,19.90
2023-05-25T07:03:46.535Z,20.10
2023-05-25T07:06:13.516Z,20.00
2023-05-25T07:08:40.583Z,20.10
2023-05-25T07:11:10.579Z,20.20
2023-05-25T07:13:37.778Z,20.30
2023-05-25T07:16:05.011Z,20.40
2023-05-25T07:18:32.146Z,20.50
2023-05-25T07:20:59.422Z,20.60
2023-05-25T07:23:26.446Z,20.80
2023-05-25T07:25:54.658Z,20.90
2023-05-25T07:28:21.670Z,21.20
2023-05-25T07:30:48.742Z,21.20
2023-05-25T07:33:15.799Z,21.40
2023-05-25T07:35:42.914Z,21.60
2023-05-25T07:38:10.584Z,21.70
2023-05-25T07:40:37.846Z,21.90
2023-05-25T07:43:08.509Z,22.10
2023-05-25T07:45:35.792Z,22.40
2023-05-25T07:48:02.984Z,22.60
2023-05-25T07:50:31.854Z,22.90
2023-05-25T07:53:00.377Z,23.30
2023-05-25T07:55:27.697Z,23.80
2023-05-25T07:57:55.017Z,23.80
2023-05-25T08:00:22.363Z,23.90
2023-05-25T08:02:49.991Z,24.00
2023-05-25T08:05:17.437Z,24.20
2023-05-25T08:07:46.637Z,24.30
2023-05-25T08:10:13.874Z,24.40
2023-05-25T08:12:48.415Z,24.60
2023-05-25T08:15:16.885Z,24.60
2023-05-25T08:17:44.429Z,24.70
2023-05-25T08:20:12.368Z,24.80
2023-05-25T08:22:39.344Z,25.10
2023-05-25T08:25:06.866Z,25.40
2023-05-25T08:27:35.696Z,25.90
2023-05-25T08:30:08.049Z,26.30
2023-05-25T08:32:35.045Z,26.70
2023-05-25T08:35:04.575Z,27.00
2023-05-25T08:37:35.682Z,27.30
2023-05-25T08:40:03.156Z,27.60
2023-05-25T08:42:30.431Z,28.00
2023-05-25T08:44:58.798Z,28.50
2023-05-25T08:47:32.657Z,28.80
2023-05-25T08:50:02.354Z,29.00
2023-05-25T08:52:33.333Z,29.10
2023-05-25T08:55:05.943Z,29.20
2023-05-25T08:57:45.029Z,29.50
2023-05-25T09:00:15.909Z,29.80
2023-05-25T09:03:03.188Z,30.20
2023-05-25T09:05:30.510Z,30.50
2023-05-25T09:07:58.649Z,30.50
2023-05-25T09:10:27.822Z,30.50
2023-05-25T09:12:55.824Z,30.40
2023-05-25T09:15:22.824Z,30.50
2023-05-25T09:17:49.939Z,30.60
2023-05-25T09:20:19.012Z,30.90
2023-05-25T09:22:48.063Z,31.30
2023-05-25T09:25:22.440Z,31.60
2023-05-25T09:27:50.040Z,31.90
2023-05-25T09:30:17.263Z,32.20
2023-05-25T09:32:44.550Z,32.30
2023-05-25T09:35:14.315Z,32.30
2023-05-25T09:37:45.182Z,32.40
2023-05-25T09:40:13.102Z,32.40
2023-05-25T09:42:42.321Z,32.40
2023-05-25T09:45:09.958Z,32.40
2023-05-25T09:47:38.419Z,32.40
2023-05-25T09:50:06.351Z,32.70
2023-05-25T09:52:33.356Z,32.90
2023-05-25T09:55:02.562Z,33.10
2023-05-25T09:57:29.613Z,33.30
2023-05-25T09:59:57.101Z,33.30
2023-05-25T10:02:24.270Z,33.50
2023-05-25T10:04:51.478Z,33.50
2023-05-25T10:07:19.734Z,33.60
2023-05-25T10:09:47.784Z,33.60
2023-05-25T10:12:20.823Z,33.80
2023-05-25T10:14:51.468Z,34.00
2023-05-25T10:17:24.115Z,34.30
2023-05-25T10:19:59.481Z,34.60
2023-05-25T10:22:41.096Z,35.00
2023-05-25T10:25:26.847Z,35.40
2023-05-25T10:28:05.479Z,35.70
2023-05-25T10:30:33.484Z,35.90
2023-05-25T10:33:02.480Z,36.20
2023-05-25T10:35:32.829Z,36.30
2023-05-25T10:38:06.447Z,36.30
2023-05-25T10:40:34.926Z,36.10
2023-05-25T10:43:02.955Z,36.10
2023-05-25T10:45:29.992Z,36.20
2023-05-25T10:47:58.069Z,36.20
2023-05-25T10:50:27.319Z,36.30
2023-05-25T10:53:05.875Z,36.60
2023-05-25T10:55:51.915Z,36.80
2023-05-25T10:58:20.306Z,37.00
2023-05-25T11:01:09.503Z,37.20
2023-05-25T11:03:56.527Z,37.40
2023-05-25T11:06:46.650Z,37.60
2023-05-25T11:09:27.692Z,37.90
2023-05-25T11:12:01.962Z,38.10
2023-05-25T11:14:33.016Z,38.00
2023-05-25T11:17:12.117Z,37.90
2023-05-25T11:19:50.656Z,37.70
2023-05-25T11:22:23.799Z,37.80
2023-05-25T11:24:53.150Z,38.00
2023-05-25T11:27:29.768Z,38.40
2023-05-25T11:29:59.576Z,39.00
2023-05-25T11:32:28.561Z,39.80
2023-05-25T11:34:58.242Z,40.50
2023-05-25T11:37:31.264Z,41.20
2023-05-25T11:39:58.821Z,41.80
2023-05-25T11:42:26.645Z,42.30
2023-05-25T11:44:53.777Z,42.90
2023-05-25T11:47:25.390Z,43.40
2023-05-25T11:49:55.512Z,43.70
2023-05-25T11:52:23.216Z,43.90
2023-05-25T11:54:50.416Z,43.90
2023-05-25T11:57:24.854Z,43.90
2023-05-25T12:00:00.364Z,43.90
2023-05-25T12:02:27.637Z,43.60
2023-05-25T12:05:03.788Z,43.20
2023-05-25T12:07:32.019Z,42.80
2023-05-25T12:10:11.291Z,42.60
2023-05-25T12:12:50.819Z,42.80
2023-05-25T12:15:24.544Z,43.00
2023-05-25T12:17:54.003Z,43.40
2023-05-25T12:20:21.614Z,43.90
2023-05-25T12:22:49.212Z,44.30
2023-05-25T12:25:21.226Z,44.50
2023-05-25T12:27:48.484Z,44.30
2023-05-25T12:30:15.948Z,44.00
2023-05-25T12:33:05.074Z,43.50
2023-05-25T12:35:48.190Z,43.10
2023-05-25T12:38:18.592Z,42.60
2023-05-25T12:40:45.823Z,42.20
2023-05-25T12:43:14.360Z,41.90
2023-05-25T12:45:44.693Z,41.60
2023-05-25T12:48:12.101Z,41.50
2023-05-25T12:50:58.362Z,41.30
2023-05-25T12:53:27.224Z,41.20
2023-05-25T12:56:12.817Z,40.90
2023-05-25T12:58:40.904Z,40.40
2023-05-25T13:01:11.105Z,40.00
2023-05-25T13:03:38.130Z,39.50
2023-05-25T13:06:06.451Z,39.00
2023-05-25T13:08:33.373Z,38.50
2023-05-25T13:11:01.378Z,38.00
2023-05-25T13:13:28.491Z,37.50
2023-05-25T13:15:55.681Z,37.10
2023-05-25T13:18:22.846Z,36.60
2023-05-25T13:20:51.223Z,36.30
2023-05-25T13:23:20.601Z,36.00
2023-05-25T13:25:47.674Z,35.70
2023-05-25T13:28:14.671Z,35.50
2023-05-25T13:30:43.271Z,35.20
2023-05-25T13:33:10.879Z,35.00
2023-05-25T13:35:41.858Z,35.00
2023-05-25T13:38:10.472Z,35.10
2023-05-25T13:40:37.430Z,35.30
2023-05-25T13:43:04.504Z,36.00
2023-05-25T13:45:31.439Z,36.60
2023-05-25T13:47:58.927Z,37.10
2023-05-25T13:50:26.194Z,37.40
2023-05-25T13:52:53.150Z,37.30
2023-05-25T13:55:20.265Z,37.20
2023-05-25T13:57:47.372Z,37.10
2023-05-25T14:00:14.861Z,37.10
2023-05-25T14:02:41.874Z,37.20
2023-05-25T14:05:09.143Z,37.30
2023-05-25T14:07:36.205Z,37.50
2023-05-25T14:10:04.586Z,37.60
2023-05-25T14:12:32.246Z,37.70
2023-05-25T14:14:59.594Z,37.90
2023-05-25T14:17:26.878Z,38.10
2023-05-25T14:19:54.020Z,38.20
2023-05-25T14:22:21.013Z,38.40
2023-05-25T14:24:48.006Z,38.40
2023-05-25T14:27:16.109Z,38.50
2023-05-25T14:29:43.170Z,38.30
2023-05-25T14:32:10.499Z,38.00
2023-05-25T14:34:37.532Z,37.70
2023-05-25T14:37:04.678Z,37.40
2023-05-25T14:39:31.780Z,37.00
2023-05-25T14:41:59.073Z,36.70
2023-05-25T14:44:26.155Z,36.40
2023-05-25T14:46:53.202Z,36.10
2023-05-25T14:49:24.816Z,35.80
2023-05-25T14:51:52.162Z,35.50
2023-05-25T14:54:20.360Z,35.30
2023-05-25T14:56:48.059Z,35.00
2023-05-25T14:59:15.344Z,34.60
2023-05-25T15:01:42.317Z,34.30
2023-05-25T15:04:09.650Z,34.10
2023-05-25T15:06:39.107Z,33.80
2023-05-25T15:09:07.201Z,33.80
2023-05-25T15:11:34.382Z,33.80
2023-05-25T15:14:01.879Z,33.70
2023-05-25T15:16:28.998Z,33.70
2023-05-25T15:18:56.332Z,33.50
2023-05-25T15:21:23.404Z,33.30
2023-05-25T15:23:50.965Z,33.20
2023-05-25T15:26:17.922Z,33.10
2023-05-25T15:28:45.159Z,32.90
2023-05-25T15:31:12.328Z,32.60
2023-05-25T15:33:52.099Z,32.70
2023-05-25T15:36:23.710Z,32.50
2023-05-25T15:38:50.755Z,32.30
2023-05-25T15:41:17.952Z,32.20
2023-05-25T15:44:01.098Z,32.10
2023-05-25T15:46:28.545Z,32.00
2023-05-25T15:48:55.958Z,31.90
2023-05-25T15:51:23.052Z,31.70
2023-05-25T15:53:49.949Z,31.90
2023-05-25T15:56:17.181Z,32.00
2023-05-25T15:58:48.649Z,32.10
2023-05-25T16:01:15.726Z,32.20
2023-05-25T16:03:43.159Z,32.20
2023-05-25T16:06:11.078Z,32.40
2023-05-25T16:08:40.755Z,32.60
2023-05-25T16:11:08.032Z,32.40
2023-05-25T16:13:35.038Z,32.20
2023-05-25T16:16:03.461Z,32.00
2023-05-25T16:18:30.409Z,31.90
2023-05-25T16:20:57.855Z,31.70
2023-05-25T16:23:25.483Z,31.40
2023-05-25T16:25:52.607Z,31.40
2023-05-25T16:28:19.794Z,31.30
2023-05-25T16:30:47.260Z,31.20
2023-05-25T16:33:14.558Z,31.00
2023-05-25T16:35:41.553Z,30.90
2023-05-25T16:38:08.584Z,30.70
2023-05-25T16:40:36.059Z,30.60
2023-05-25T16:43:03.306Z,30.40
2023-05-25T16:45:30.367Z,30.30
2023-05-25T16:47:57.299Z,30.10
2023-05-25T16:50:24.538Z,29.90
2023-05-25T16:52:51.483Z,29.70
2023-05-25T16:55:18.688Z,29.50
2023-05-25T16:57:45.896Z,29.30
2023-05-25T17:00:14.114Z,29.10
2023-05-25T17:02:41.301Z,28.90
2023-05-25T17:05:09.126Z,28.70
2023-05-25T17:07:36.376Z,28.40
2023-05-25T17:10:03.951Z,28.20
2023-05-25T17:12:30.913Z,28.00
2023-05-25T17:14:57.773Z,27.80
2023-05-25T17:17:28.346Z,27.80
2023-05-25T17:20:08.458Z,27.50
2023-05-25T17:22:35.743Z,27.30
2023-05-25T17:25:03.533Z,27.10
2023-05-25T17:27:30.979Z,26.90
2023-05-25T17:29:58.105Z,26.90
2023-05-25T17:32:25.167Z,26.60
2023-05-25T17:34:52.270Z,26.50
2023-05-25T17:37:20.939Z,26.40
2023-05-25T17:40:18.562Z,26.20
2023-05-25T17:42:48.915Z,26.10
2023-05-25T17:45:16.915Z,26.00
2023-05-25T17:47:43.979Z,25.90
2023-05-25T17:50:11.384Z,25.80
2023-05-25T17:52:38.302Z,25.90
2023-05-25T17:55:07.011Z,25.70
2023-05-25T17:57:34.070Z,25.50
2023-05-25T18:00:01.790Z,25.40
2023-05-25T18:02:30.277Z,25.00
2023-05-25T18:04:57.477Z,24.90
2023-05-25T18:07:25.209Z,25.00
2023-05-25T18:09:52.229Z,24.90
2023-05-25T18:12:19.240Z,24.80
2023-05-25T18:14:46.333Z,24.60
2023-05-25T18:17:13.405Z,24.50
2023-05-25T18:19:40.553Z,24.40
2023-05-25T18:22:07.674Z,24.30
2023-05-25T18:24:34.819Z,24.10
2023-05-25T18:27:03.935Z,24.00
2023-05-25T18:29:31.359Z,23.90
2023-05-25T18:31:58.325Z,23.50
2023-05-25T18:34:25.574Z,23.60
2023-05-25T18:36:52.547Z,23.40
2023-05-25T18:39:19.476Z,23.20
2023-05-25T18:41:46.769Z,23.20
2023-05-25T18:44:13.842Z,23.10
2023-05-25T18:46:43.186Z,22.90
2023-05-25T18:49:10.809Z,22.90
2023-05-25T18:51:38.204Z,22.70
2023-05-25T18:54:05.413Z,22.50
2023-05-25T18:56:32.427Z,22.40
2023-05-25T18:58:59.539Z,22.30
2023-05-25T19:01:26.581Z,22.10
2023-05-25T19:03:55.313Z,22.00
2023-05-25T19:06:24.144Z,21.80
2023-05-25T19:08:51.521Z,21.80
2023-05-25T19:11:20.052Z,21.70
2023-05-25T19:13:47.114Z,21.50
2023-05-25T19:16:14.349Z,21.40
2023-05-25T19:18:41.824Z,21.60
2023-05-25T19:21:09.023Z,21.20
2023-05-25T19:23:36.072Z,21.10
2023-05-25T19:26:03.503Z,21.00
2023-05-25T19:28:30.736Z,20.90
2023-05-25T19:30:57.794Z,20.80
2023-05-25T19:33:24.946Z,20.60
2023-05-25T19:35:52.233Z,20.70
2023-05-25T19:38:19.428Z,20.30
2023-05-25T19:40:46.544Z,20.40
2023-05-25T19:43:13.482Z,20.30
2023-05-25T19:45:40.627Z,20.30
2023-05-25T19:48:07.712Z,20.20
2023-05-25T19:50:34.695Z,20.10
2023-05-25T19:53:01.803Z,19.80
2023-05-25T19:55:29.010Z,19.90
2023-05-25T19:57:56.047Z,19.80
2023-05-25T20:00:26.553Z,19.80
2023-05-25T20:02:54.716Z,19.70
2023-05-25T20:05:22.206Z,19.60
2023-05-25T20:07:52.038Z,19.70
2023-05-25T20:10:19.491Z,19.70
2023-05-25T20:12:46.962Z,19.40
2023-05-25T20:15:14.093Z,19.20
2023-05-25T20:17:41.256Z,19.30
2023-05-25T20:20:08.772Z,19.20
2023-05-25T20:22:36.576Z,19.20
2023-05-25T20:25:03.762Z,19.20
2023-05-25T20:27:30.908Z,19.10
2023-05-25T20:29:57.900Z,19.10
2023-05-25T20:32:25.238Z,19.00
2023-05-25T20:34:52.463Z,19.00
2023-05-25T20:37:19.424Z,18.90
2023-05-25T20:39:46.511Z,18.80
2023-05-25T20:42:14.040Z,18.80
2023-05-25T20:44:41.290Z,18.80
2023-05-25T20:47:08.493Z,18.70
2023-05-25T20:49:35.765Z,18.60
2023-05-25T20:52:03.059Z,18.60
2023-05-25T20:54:30.338Z,18.60
2023-05-25T20:56:57.592Z,18.50
2023-05-25T20:59:24.959Z,18.40
2023-05-25T21:01:52.325Z,18.20
2023-05-25T21:04:19.936Z,18.40
2023-05-25T21:06:47.328Z,18.30
2023-05-25T21:09:14.794Z,18.60
2023-05-25T21:11:41.851Z,18.20
2023-05-25T21:14:08.903Z,18.10
2023-05-25T21:16:35.930Z,18.10
2023-05-25T21:19:02.977Z,18.00
2023-05-25T21:21:34.026Z,18.00
2023-05-25T21:24:01.843Z,17.90
2023-05-25T21:26:32.574Z,17.90
2023-05-25T21:28:59.742Z,17.80
2023-05-25T21:31:27.235Z,17.70
2023-05-25T21:33:54.294Z,17.70
2023-05-25T21:36:21.373Z,17.70
2023-05-25T21:38:48.504Z,17.80
2023-05-25T21:41:15.555Z,17.60
2023-05-25T21:43:42.667Z,17.60
2023-05-25T21:46:09.778Z,17.50
2023-05-25T21:48:36.814Z,17.40
2023-05-25T21:51:04.289Z,17.40
2023-05-25T21:53:31.531Z,17.40
2023-05-25T21:55:58.654Z,17.40
2023-05-25T21:58:25.729Z,17.30
2023-05-25T22:00:53.003Z,17.30
2023-05-25T22:03:20.039Z,17.30
2023-05-25T22:05:47.273Z,17.30
2023-05-25T22:08:14.290Z,17.20
2023-05-25T22:10:41.531Z,17.20
2023-05-25T22:13:08.650Z,17.20
2023-05-25T22:15:35.589Z,17.10
2023-05-25T22:18:02.671Z,17.20
2023-05-25T22:20:29.844Z,17.50
2023-05-25T22:22:57.107Z,17.20
2023-05-25T22:25:25.235Z,17.20
2023-05-25T22:27:52.660Z,17.10
2023-05-25T22:30:20.020Z,17.40
2023-05-25T22:32:47.525Z,17.20
2023-05-25T22:35:14.688Z,17.10
2023-05-25T22:37:41.788Z,17.10
2023-05-25T22:40:09.385Z,17.00
2023-05-25T22:42:36.379Z,17.10
2023-05-25T22:45:03.740Z,17.10
2023-05-25T22:47:30.818Z,17.10
2023-05-25T22:49:57.828Z,17.20
2023-05-25T22:52:24.743Z,17.20
2023-05-25T22:54:51.651Z,17.30
2023-05-25T22:57:18.745Z,17.10
2023-05-25T22:59:45.884Z,17.10
2023-05-25T23:02:13.265Z,17.20
2023-05-25T23:04:40.828Z,17.00
2023-05-25T23:07:08.162Z,17.20
2023-05-25T23:09:35.125Z,17.00
2023-05-25T23:12:02.574Z,17.00
2023-05-25T23:14:30.806Z,17.00
2023-05-25T23:16:58.110Z,16.90
2023-05-25T23:19:25.687Z,16.90
2023-05-25T23:21:54.356Z,16.80
2023-05-25T23:24:21.489Z,16.80
2023-05-25T23:26:48.672Z,16.80
2023-05-25T23:29:16.084Z,16.70
2023-05-25T23:31:43.663Z,16.70
2023-05-25T23:34:12.088Z,16.60
2023-05-25T23:36:40.529Z,16.70
2023-05-25T23:39:08.164Z,16.50
2023-05-25T23:41:35.441Z,16.40
2023-05-25T23:44:02.670Z,16.40
2023-05-25T23:46:31.918Z,16.60
2023-05-25T23:48:59.215Z,16.30
2023-05-25T23:51:26.369Z,16.30
2023-05-25T23:53:53.535Z,16.20
2023-05-25T23:56:21.838Z,16.20
2023-05-25T23:58:48.863Z,16.10
